sensor_id;sensor_type;location;lat;lon;timestamp;P1;durP1;ratioP1;P2;durP2;ratioP2
20443;SDS011;10381;53.730;10.010;2023-11-21T00:00:45;30.13;;;12.73;;
20443;SDS011;10381;53.730;10.010;2023-11-21T00:04:45;27.52;;;12.50;;
20443;SDS011;10381;53.730;10.010;2023-11-21T00:08:46;23.60;;;12.67;;
20443;SDS011;10381;53.730;10.010;2023-11-21T00:12:46;25.77;;;11.73;;
20443;SDS011;10381;53.730;10.010;2023-11-21T00:16:48;27.70;;;12.18;;
20443;SDS011;10381;53.730;10.010;2023-11-21T00:20:48;26.73;;;12.63;;
20443;SDS011;10381;53.730;10.010;2023-11-21T00:24:49;37.33;;;12.27;;
20443;SDS011;10381;53.730;10.010;2023-11-21T00:28:49;26.98;;;11.65;;
20443;SDS011;10381;53.730;10.010;2023-11-21T00:32:50;25.25;;;11.38;;
20443;SDS011;10381;53.730;10.010;2023-11-21T00:36:50;20.97;;;12.63;;
20443;SDS011;10381;53.730;10.010;2023-11-21T00:40:51;29.58;;;11.98;;
20443;SDS011;10381;53.730;10.010;2023-11-21T00:44:53;32.83;;;14.32;;
20443;SDS011;10381;53.730;10.010;2023-11-21T00:48:53;35.13;;;15.07;;
20443;SDS011;10381;53.730;10.010;2023-11-21T00:52:54;30.75;;;12.90;;
20443;SDS011;10381;53.730;10.010;2023-11-21T00:56:54;31.37;;;13.37;;
20443;SDS011;10381;53.730;10.010;2023-11-21T01:00:54;38.23;;;14.10;;
20443;SDS011;10381;53.730;10.010;2023-11-21T01:04:54;25.77;;;12.80;;
20443;SDS011;10381;53.730;10.010;2023-11-21T01:08:55;24.37;;;12.57;;
20443;SDS011;10381;53.730;10.010;2023-11-21T01:12:55;19.48;;;11.02;;
20443;SDS011;10381;53.730;10.010;2023-11-21T01:16:55;19.47;;;10.97;;
20443;SDS011;10381;53.730;10.010;2023-11-21T01:20:56;18.65;;;10.93;;
20443;SDS011;10381;53.730;10.010;2023-11-21T01:24:57;29.65;;;10.57;;
20443;SDS011;10381;53.730;10.010;2023-11-21T01:28:57;24.77;;;10.93;;
20443;SDS011;10381;53.730;10.010;2023-11-21T01:32:58;23.67;;;10.73;;
20443;SDS011;10381;53.730;10.010;2023-11-21T01:36:59;14.63;;;8.50;;
20443;SDS011;10381;53.730;10.010;2023-11-21T01:40:59;19.25;;;8.57;;
20443;SDS011;10381;53.730;10.010;2023-11-21T01:45:01;21.83;;;7.20;;
20443;SDS011;10381;53.730;10.010;2023-11-21T01:49:05;16.83;;;7.25;;
20443;SDS011;10381;53.730;10.010;2023-11-21T01:53:05;27.67;;;7.70;;
20443;SDS011;10381;53.730;10.010;2023-11-21T01:57:06;13.55;;;6.75;;
20443;SDS011;10381;53.730;10.010;2023-11-21T02:01:07;18.02;;;8.43;;
20443;SDS011;10381;53.730;10.010;2023-11-21T02:05:07;11.98;;;7.00;;
20443;SDS011;10381;53.730;10.010;2023-11-21T02:13:18;18.10;;;9.13;;
20443;SDS011;10381;53.730;10.010;2023-11-21T02:17:19;21.27;;;9.15;;
20443;SDS011;10381;53.730;10.010;2023-11-21T02:21:20;10.68;;;6.75;;
20443;SDS011;10381;53.730;10.010;2023-11-21T02:25:20;21.10;;;8.47;;
20443;SDS011;10381;53.730;10.010;2023-11-21T02:29:21;16.13;;;8.73;;
20443;SDS011;10381;53.730;10.010;2023-11-21T02:33:28;14.50;;;8.32;;
20443;SDS011;10381;53.730;10.010;2023-11-21T02:37:28;19.15;;;9.05;;
20443;SDS011;10381;53.730;10.010;2023-11-21T02:41:29;21.10;;;9.33;;
20443;SDS011;10381;53.730;10.010;2023-11-21T02:45:29;20.37;;;10.47;;
20443;SDS011;10381;53.730;10.010;2023-11-21T02:49:29;27.53;;;10.07;;
20443;SDS011;10381;53.730;10.010;2023-11-21T02:53:30;21.10;;;9.40;;
20443;SDS011;10381;53.730;10.010;2023-11-21T02:57:31;22.83;;;10.13;;
20443;SDS011;10381;53.730;10.010;2023-11-21T03:01:31;33.63;;;10.70;;
20443;SDS011;10381;53.730;10.010;2023-11-21T03:05:31;20.60;;;9.05;;
20443;SDS011;10381;53.730;10.010;2023-11-21T03:09:32;17.42;;;9.82;;
20443;SDS011;10381;53.730;10.010;2023-11-21T03:13:32;15.80;;;8.37;;
20443;SDS011;10381;53.730;10.010;2023-11-21T03:17:32;19.70;;;8.43;;
20443;SDS011;10381;53.730;10.010;2023-11-21T03:21:36;14.90;;;8.90;;
20443;SDS011;10381;53.730;10.010;2023-11-21T03:25:36;20.63;;;9.70;;
20443;SDS011;10381;53.730;10.010;2023-11-21T03:29:36;18.00;;;8.02;;
20443;SDS011;10381;53.730;10.010;2023-11-21T03:33:37;17.67;;;8.17;;
20443;SDS011;10381;53.730;10.010;2023-11-21T03:37:37;18.17;;;8.65;;
20443;SDS011;10381;53.730;10.010;2023-11-21T03:41:41;15.80;;;8.00;;
20443;SDS011;10381;53.730;10.010;2023-11-21T03:45:41;13.27;;;8.30;;
20443;SDS011;10381;53.730;10.010;2023-11-21T03:49:41;18.20;;;9.45;;
20443;SDS011;10381;53.730;10.010;2023-11-21T03:53:42;16.30;;;10.20;;
20443;SDS011;10381;53.730;10.010;2023-11-21T03:57:42;30.67;;;10.60;;
20443;SDS011;10381;53.730;10.010;2023-11-21T04:01:42;21.17;;;10.27;;
20443;SDS011;10381;53.730;10.010;2023-11-21T04:05:43;29.30;;;11.07;;
20443;SDS011;10381;53.730;10.010;2023-11-21T04:09:43;10.25;;;8.32;;
20443;SDS011;10381;53.730;10.010;2023-11-21T04:13:43;15.43;;;9.20;;
20443;SDS011;10381;53.730;10.010;2023-11-21T04:17:44;17.70;;;10.43;;
20443;SDS011;10381;53.730;10.010;2023-11-21T04:21:45;22.73;;;9.05;;
20443;SDS011;10381;53.730;10.010;2023-11-21T04:25:46;16.38;;;9.80;;
20443;SDS011;10381;53.730;10.010;2023-11-21T04:29:46;23.50;;;10.38;;
20443;SDS011;10381;53.730;10.010;2023-11-21T04:33:46;23.30;;;11.93;;
20443;SDS011;10381;53.730;10.010;2023-11-21T04:37:47;29.95;;;10.48;;
20443;SDS011;10381;53.730;10.010;2023-11-21T04:41:47;25.38;;;10.15;;
20443;SDS011;10381;53.730;10.010;2023-11-21T04:45:47;15.47;;;9.80;;
20443;SDS011;10381;53.730;10.010;2023-11-21T04:49:48;18.17;;;9.83;;
20443;SDS011;10381;53.730;10.010;2023-11-21T04:53:48;24.40;;;9.90;;
20443;SDS011;10381;53.730;10.010;2023-11-21T04:57:48;20.08;;;11.25;;
20443;SDS011;10381;53.730;10.010;2023-11-21T05:01:49;18.40;;;10.52;;
20443;SDS011;10381;53.730;10.010;2023-11-21T05:05:49;15.73;;;9.07;;
20443;SDS011;10381;53.730;10.010;2023-11-21T05:09:49;15.82;;;9.18;;
20443;SDS011;10381;53.730;10.010;2023-11-21T05:13:50;17.83;;;10.63;;
20443;SDS011;10381;53.730;10.010;2023-11-21T05:17:50;23.73;;;10.23;;
20443;SDS011;10381;53.730;10.010;2023-11-21T05:21:52;17.50;;;9.55;;
20443;SDS011;10381;53.730;10.010;2023-11-21T05:25:52;18.63;;;8.60;;
20443;SDS011;10381;53.730;10.010;2023-11-21T05:29:52;18.87;;;10.47;;
20443;SDS011;10381;53.730;10.010;2023-11-21T05:33:52;19.58;;;9.85;;
20443;SDS011;10381;53.730;10.010;2023-11-21T05:37:53;13.07;;;8.53;;
20443;SDS011;10381;53.730;10.010;2023-11-21T05:41:53;16.50;;;9.18;;
20443;SDS011;10381;53.730;10.010;2023-11-21T05:45:53;17.50;;;8.53;;
20443;SDS011;10381;53.730;10.010;2023-11-21T05:49:54;14.07;;;8.07;;
20443;SDS011;10381;53.730;10.010;2023-11-21T05:53:54;19.33;;;9.83;;
20443;SDS011;10381;53.730;10.010;2023-11-21T05:57:54;15.23;;;9.45;;
20443;SDS011;10381;53.730;10.010;2023-11-21T06:01:55;23.88;;;9.82;;
20443;SDS011;10381;53.730;10.010;2023-11-21T06:05:55;16.23;;;8.05;;
20443;SDS011;10381;53.730;10.010;2023-11-21T06:09:55;17.35;;;8.98;;
20443;SDS011;10381;53.730;10.010;2023-11-21T06:13:56;22.60;;;7.67;;
20443;SDS011;10381;53.730;10.010;2023-11-21T06:17:58;8.97;;;6.77;;
20443;SDS011;10381;53.730;10.010;2023-11-21T06:21:59;22.20;;;7.80;;
20443;SDS011;10381;53.730;10.010;2023-11-21T06:26:01;13.00;;;7.28;;
20443;SDS011;10381;53.730;10.010;2023-11-21T06:30:01;14.63;;;6.93;;
20443;SDS011;10381;53.730;10.010;2023-11-21T06:34:02;15.98;;;6.68;;
20443;SDS011;10381;53.730;10.010;2023-11-21T06:38:03;18.52;;;8.32;;
20443;SDS011;10381;53.730;10.010;2023-11-21T06:42:03;14.20;;;7.60;;
20443;SDS011;10381;53.730;10.010;2023-11-21T06:46:04;12.05;;;6.82;;
20443;SDS011;10381;53.730;10.010;2023-11-21T06:50:05;12.82;;;7.72;;
20443;SDS011;10381;53.730;10.010;2023-11-21T06:54:06;9.25;;;6.70;;
20443;SDS011;10381;53.730;10.010;2023-11-21T06:58:07;17.73;;;8.00;;
20443;SDS011;10381;53.730;10.010;2023-11-21T07:02:07;15.70;;;6.88;;
20443;SDS011;10381;53.730;10.010;2023-11-21T07:06:08;20.25;;;7.50;;
20443;SDS011;10381;53.730;10.010;2023-11-21T07:10:08;14.45;;;6.57;;
20443;SDS011;10381;53.730;10.010;2023-11-21T07:14:09;14.60;;;6.07;;
20443;SDS011;10381;53.730;10.010;2023-11-21T07:18:09;17.40;;;6.97;;
20443;SDS011;10381;53.730;10.010;2023-11-21T07:22:09;11.13;;;6.43;;
20443;SDS011;10381;53.730;10.010;2023-11-21T07:26:10;9.85;;;5.93;;
20443;SDS011;10381;53.730;10.010;2023-11-21T07:30:11;11.38;;;6.30;;
20443;SDS011;10381;53.730;10.010;2023-11-21T07:34:13;9.63;;;5.53;;
20443;SDS011;10381;53.730;10.010;2023-11-21T07:38:13;11.97;;;6.17;;
20443;SDS011;10381;53.730;10.010;2023-11-21T07:42:13;19.00;;;5.77;;
20443;SDS011;10381;53.730;10.010;2023-11-21T07:46:13;7.87;;;5.30;;
20443;SDS011;10381;53.730;10.010;2023-11-21T07:50:14;11.60;;;5.93;;
20443;SDS011;10381;53.730;10.010;2023-11-21T07:54:14;11.68;;;5.43;;
20443;SDS011;10381;53.730;10.010;2023-11-21T07:58:15;7.45;;;4.53;;
20443;SDS011;10381;53.730;10.010;2023-11-21T08:02:16;11.73;;;5.18;;
20443;SDS011;10381;53.730;10.010;2023-11-21T08:06:17;9.45;;;5.13;;
20443;SDS011;10381;53.730;10.010;2023-11-21T08:10:18;7.70;;;4.57;;
20443;SDS011;10381;53.730;10.010;2023-11-21T08:14:18;6.63;;;4.53;;
20443;SDS011;10381;53.730;10.010;2023-11-21T08:18:20;5.68;;;3.88;;
20443;SDS011;10381;53.730;10.010;2023-11-21T08:22:20;7.18;;;3.92;;
20443;SDS011;10381;53.730;10.010;2023-11-21T08:26:22;17.38;;;4.00;;
20443;SDS011;10381;53.730;10.010;2023-11-21T08:30:23;7.95;;;4.28;;
20443;SDS011;10381;53.730;10.010;2023-11-21T08:34:24;8.27;;;4.38;;
20443;SDS011;10381;53.730;10.010;2023-11-21T08:38:25;7.65;;;4.18;;
20443;SDS011;10381;53.730;10.010;2023-11-21T08:42:26;18.83;;;3.90;;
20443;SDS011;10381;53.730;10.010;2023-11-21T08:46:29;7.15;;;3.42;;
20443;SDS011;10381;53.730;10.010;2023-11-21T08:50:30;8.50;;;4.10;;
20443;SDS011;10381;53.730;10.010;2023-11-21T08:54:30;7.00;;;3.70;;
20443;SDS011;10381;53.730;10.010;2023-11-21T08:58:31;5.90;;;3.45;;
20443;SDS011;10381;53.730;10.010;2023-11-21T09:02:39;9.82;;;3.92;;
20443;SDS011;10381;53.730;10.010;2023-11-21T09:06:41;8.75;;;3.90;;
20443;SDS011;10381;53.730;10.010;2023-11-21T09:10:42;9.00;;;3.70;;
20443;SDS011;10381;53.730;10.010;2023-11-21T09:14:45;5.10;;;3.28;;
20443;SDS011;10381;53.730;10.010;2023-11-21T09:18:45;18.50;;;3.78;;
20443;SDS011;10381;53.730;10.010;2023-11-21T09:22:45;6.57;;;3.72;;
20443;SDS011;10381;53.730;10.010;2023-11-21T09:26:53;7.13;;;3.75;;
20443;SDS011;10381;53.730;10.010;2023-11-21T09:30:54;5.85;;;4.03;;
20443;SDS011;10381;53.730;10.010;2023-11-21T09:34:54;5.63;;;3.40;;
20443;SDS011;10381;53.730;10.010;2023-11-21T09:38:58;7.20;;;3.72;;
20443;SDS011;10381;53.730;10.010;2023-11-21T09:42:58;4.87;;;3.27;;
20443;SDS011;10381;53.730;10.010;2023-11-21T09:46:59;4.55;;;4.15;;
20443;SDS011;10381;53.730;10.010;2023-11-21T09:50:59;4.78;;;4.20;;
20443;SDS011;10381;53.730;10.010;2023-11-21T09:55:03;3.83;;;3.53;;
20443;SDS011;10381;53.730;10.010;2023-11-21T09:59:07;4.40;;;4.00;;
20443;SDS011;10381;53.730;10.010;2023-11-21T10:03:10;3.97;;;3.65;;
20443;SDS011;10381;53.730;10.010;2023-11-21T10:07:12;5.45;;;4.03;;
20443;SDS011;10381;53.730;10.010;2023-11-21T10:11:16;4.95;;;3.63;;
20443;SDS011;10381;53.730;10.010;2023-11-21T10:15:17;5.35;;;4.20;;
20443;SDS011;10381;53.730;10.010;2023-11-21T10:19:18;4.85;;;4.30;;
20443;SDS011;10381;53.730;10.010;2023-11-21T10:23:21;5.78;;;4.50;;
20443;SDS011;10381;53.730;10.010;2023-11-21T10:27:22;8.20;;;4.97;;
20443;SDS011;10381;53.730;10.010;2023-11-21T10:31:23;6.10;;;5.45;;
20443;SDS011;10381;53.730;10.010;2023-11-21T10:35:33;6.20;;;5.00;;
20443;SDS011;10381;53.730;10.010;2023-11-21T10:39:51;6.55;;;5.68;;
20443;SDS011;10381;53.730;10.010;2023-11-21T10:43:52;6.57;;;5.80;;
20443;SDS011;10381;53.730;10.010;2023-11-21T10:47:53;8.13;;;5.70;;
20443;SDS011;10381;53.730;10.010;2023-11-21T10:51:54;6.28;;;5.72;;
20443;SDS011;10381;53.730;10.010;2023-11-21T10:56:01;6.43;;;5.88;;
20443;SDS011;10381;53.730;10.010;2023-11-21T11:00:07;6.07;;;5.25;;
20443;SDS011;10381;53.730;10.010;2023-11-21T11:04:12;9.18;;;7.07;;
20443;SDS011;10381;53.730;10.010;2023-11-21T11:08:17;7.60;;;6.80;;
20443;SDS011;10381;53.730;10.010;2023-11-21T11:12:19;8.95;;;8.05;;
20443;SDS011;10381;53.730;10.010;2023-11-21T11:16:19;7.95;;;6.18;;
20443;SDS011;10381;53.730;10.010;2023-11-21T11:20:20;7.38;;;6.68;;
20443;SDS011;10381;53.730;10.010;2023-11-21T11:37:45;7.78;;;6.35;;
20443;SDS011;10381;53.730;10.010;2023-11-21T11:41:45;7.50;;;6.25;;
20443;SDS011;10381;53.730;10.010;2023-11-21T11:45:47;6.05;;;5.45;;
20443;SDS011;10381;53.730;10.010;2023-11-21T11:50:10;6.35;;;5.70;;
20443;SDS011;10381;53.730;10.010;2023-11-21T11:54:19;9.50;;;6.90;;
20443;SDS011;10381;53.730;10.010;2023-11-21T11:58:38;6.82;;;6.05;;
20443;SDS011;10381;53.730;10.010;2023-11-21T12:02:38;7.57;;;6.30;;
20443;SDS011;10381;53.730;10.010;2023-11-21T12:06:40;7.00;;;6.30;;
20443;SDS011;10381;53.730;10.010;2023-11-21T12:10:41;10.02;;;6.65;;
20443;SDS011;10381;53.730;10.010;2023-11-21T12:14:43;7.00;;;6.40;;
20443;SDS011;10381;53.730;10.010;2023-11-21T12:18:45;7.80;;;6.70;;
20443;SDS011;10381;53.730;10.010;2023-11-21T12:22:47;8.07;;;7.38;;
20443;SDS011;10381;53.730;10.010;2023-11-21T12:26:48;6.80;;;6.22;;
20443;SDS011;10381;53.730;10.010;2023-11-21T12:30:49;10.03;;;6.80;;
20443;SDS011;10381;53.730;10.010;2023-11-21T12:34:49;6.65;;;5.93;;
20443;SDS011;10381;53.730;10.010;2023-11-21T12:38:49;6.60;;;6.00;;
20443;SDS011;10381;53.730;10.010;2023-11-21T12:42:53;7.83;;;6.53;;
20443;SDS011;10381;53.730;10.010;2023-11-21T12:46:54;7.15;;;6.45;;
20443;SDS011;10381;53.730;10.010;2023-11-21T12:50:55;8.18;;;7.35;;
20443;SDS011;10381;53.730;10.010;2023-11-21T12:54:56;8.30;;;7.23;;
20443;SDS011;10381;53.730;10.010;2023-11-21T12:58:56;8.00;;;6.97;;
20443;SDS011;10381;53.730;10.010;2023-11-21T13:02:59;7.20;;;6.50;;
20443;SDS011;10381;53.730;10.010;2023-11-21T13:07:03;11.25;;;6.53;;
20443;SDS011;10381;53.730;10.010;2023-11-21T13:11:14;7.43;;;6.63;;
20443;SDS011;10381;53.730;10.010;2023-11-21T13:15:14;9.90;;;6.20;;
20443;SDS011;10381;53.730;10.010;2023-11-21T13:19:17;6.47;;;5.45;;
20443;SDS011;10381;53.730;10.010;2023-11-21T13:23:19;10.30;;;6.93;;
20443;SDS011;10381;53.730;10.010;2023-11-21T13:27:19;10.30;;;7.10;;
20443;SDS011;10381;53.730;10.010;2023-11-21T13:31:20;11.40;;;6.13;;
20443;SDS011;10381;53.730;10.010;2023-11-21T13:35:30;14.57;;;5.78;;
20443;SDS011;10381;53.730;10.010;2023-11-21T13:39:32;12.25;;;6.32;;
20443;SDS011;10381;53.730;10.010;2023-11-21T13:43:32;7.90;;;7.00;;
20443;SDS011;10381;53.730;10.010;2023-11-21T13:47:33;7.80;;;7.05;;
20443;SDS011;10381;53.730;10.010;2023-11-21T13:51:36;14.40;;;7.13;;
20443;SDS011;10381;53.730;10.010;2023-11-21T13:55:48;8.85;;;7.53;;
20443;SDS011;10381;53.730;10.010;2023-11-21T13:59:54;7.78;;;6.97;;
20443;SDS011;10381;53.730;10.010;2023-11-21T14:03:55;9.23;;;6.73;;
20443;SDS011;10381;53.730;10.010;2023-11-21T14:08:19;6.70;;;6.20;;
20443;SDS011;10381;53.730;10.010;2023-11-21T14:12:21;8.35;;;6.75;;
20443;SDS011;10381;53.730;10.010;2023-11-21T14:16:21;7.88;;;6.55;;
20443;SDS011;10381;53.730;10.010;2023-11-21T14:20:22;7.90;;;7.10;;
20443;SDS011;10381;53.730;10.010;2023-11-21T14:24:23;10.45;;;6.75;;
20443;SDS011;10381;53.730;10.010;2023-11-21T14:28:24;7.65;;;6.88;;
20443;SDS011;10381;53.730;10.010;2023-11-21T14:32:25;12.53;;;6.23;;
20443;SDS011;10381;53.730;10.010;2023-11-21T14:36:27;5.85;;;5.35;;
20443;SDS011;10381;53.730;10.010;2023-11-21T14:40:28;7.55;;;6.35;;
20443;SDS011;10381;53.730;10.010;2023-11-21T14:44:33;8.18;;;7.47;;
20443;SDS011;10381;53.730;10.010;2023-11-21T14:48:38;13.15;;;7.90;;
20443;SDS011;10381;53.730;10.010;2023-11-21T14:52:47;9.63;;;7.47;;
20443;SDS011;10381;53.730;10.010;2023-11-21T14:56:58;11.43;;;9.50;;
20443;SDS011;10381;53.730;10.010;2023-11-21T15:00:58;10.80;;;9.57;;
20443;SDS011;10381;53.730;10.010;2023-11-21T15:05:00;9.60;;;8.75;;
20443;SDS011;10381;53.730;10.010;2023-11-21T15:09:02;11.95;;;9.63;;
20443;SDS011;10381;53.730;10.010;2023-11-21T15:13:08;10.63;;;9.48;;
20443;SDS011;10381;53.730;10.010;2023-11-21T15:17:14;8.55;;;7.75;;
20443;SDS011;10381;53.730;10.010;2023-11-21T15:21:22;9.50;;;8.70;;
20443;SDS011;10381;53.730;10.010;2023-11-21T15:25:24;12.57;;;9.13;;
20443;SDS011;10381;53.730;10.010;2023-11-21T15:29:24;10.33;;;9.23;;
20443;SDS011;10381;53.730;10.010;2023-11-21T15:33:26;8.93;;;8.10;;
20443;SDS011;10381;53.730;10.010;2023-11-21T15:37:27;8.52;;;7.65;;
20443;SDS011;10381;53.730;10.010;2023-11-21T15:41:29;9.95;;;7.85;;
20443;SDS011;10381;53.730;10.010;2023-11-21T15:45:29;9.77;;;8.40;;
20443;SDS011;10381;53.730;10.010;2023-11-21T15:49:31;9.68;;;8.68;;
20443;SDS011;10381;53.730;10.010;2023-11-21T15:53:35;9.73;;;8.80;;
20443;SDS011;10381;53.730;10.010;2023-11-21T15:57:36;10.53;;;9.57;;
20443;SDS011;10381;53.730;10.010;2023-11-21T16:01:36;11.10;;;9.90;;
20443;SDS011;10381;53.730;10.010;2023-11-21T16:05:43;21.45;;;11.05;;
20443;SDS011;10381;53.730;10.010;2023-11-21T16:09:43;11.48;;;10.23;;
20443;SDS011;10381;53.730;10.010;2023-11-21T16:13:43;11.67;;;10.67;;
20443;SDS011;10381;53.730;10.010;2023-11-21T16:17:46;14.30;;;11.50;;
20443;SDS011;10381;53.730;10.010;2023-11-21T16:21:47;12.90;;;11.47;;
20443;SDS011;10381;53.730;10.010;2023-11-21T16:25:48;12.00;;;10.60;;
20443;SDS011;10381;53.730;10.010;2023-11-21T16:29:54;10.73;;;9.88;;
20443;SDS011;10381;53.730;10.010;2023-11-21T16:33:55;11.70;;;10.52;;
20443;SDS011;10381;53.730;10.010;2023-11-21T16:37:56;11.48;;;10.43;;
20443;SDS011;10381;53.730;10.010;2023-11-21T16:41:57;17.77;;;10.48;;
20443;SDS011;10381;53.730;10.010;2023-11-21T16:46:00;14.88;;;10.50;;
20443;SDS011;10381;53.730;10.010;2023-11-21T16:50:01;13.27;;;10.40;;
20443;SDS011;10381;53.730;10.010;2023-11-21T16:54:02;10.75;;;9.55;;
20443;SDS011;10381;53.730;10.010;2023-11-21T16:58:02;13.63;;;9.27;;
20443;SDS011;10381;53.730;10.010;2023-11-21T17:02:02;10.40;;;9.20;;
20443;SDS011;10381;53.730;10.010;2023-11-21T17:06:03;10.57;;;9.68;;
20443;SDS011;10381;53.730;10.010;2023-11-21T17:10:05;11.55;;;9.30;;
20443;SDS011;10381;53.730;10.010;2023-11-21T17:14:09;9.40;;;8.40;;
20443;SDS011;10381;53.730;10.010;2023-11-21T17:18:09;13.80;;;8.20;;
20443;SDS011;10381;53.730;10.010;2023-11-21T17:22:10;8.02;;;7.18;;
20443;SDS011;10381;53.730;10.010;2023-11-21T17:26:10;18.02;;;7.68;;
20443;SDS011;10381;53.730;10.010;2023-11-21T17:30:14;9.35;;;7.20;;
20443;SDS011;10381;53.730;10.010;2023-11-21T17:34:15;11.23;;;7.32;;
20443;SDS011;10381;53.730;10.010;2023-11-21T17:38:19;8.55;;;6.25;;
20443;SDS011;10381;53.730;10.010;2023-11-21T17:42:19;13.23;;;7.30;;
20443;SDS011;10381;53.730;10.010;2023-11-21T17:46:23;10.15;;;6.60;;
20443;SDS011;10381;53.730;10.010;2023-11-21T17:50:23;7.32;;;6.40;;
20443;SDS011;10381;53.730;10.010;2023-11-21T17:54:24;11.43;;;7.55;;
20443;SDS011;10381;53.730;10.010;2023-11-21T17:58:24;10.50;;;7.55;;
20443;SDS011;10381;53.730;10.010;2023-11-21T18:02:24;13.93;;;9.67;;
20443;SDS011;10381;53.730;10.010;2023-11-21T18:06:24;12.27;;;8.80;;
20443;SDS011;10381;53.730;10.010;2023-11-21T18:10:25;17.85;;;10.10;;
20443;SDS011;10381;53.730;10.010;2023-11-21T18:14:25;13.23;;;8.00;;
20443;SDS011;10381;53.730;10.010;2023-11-21T18:18:26;10.07;;;8.10;;
20443;SDS011;10381;53.730;10.010;2023-11-21T18:22:26;13.50;;;8.67;;
20443;SDS011;10381;53.730;10.010;2023-11-21T18:26:27;10.80;;;7.93;;
20443;SDS011;10381;53.730;10.010;2023-11-21T18:30:28;9.32;;;7.00;;
20443;SDS011;10381;53.730;10.010;2023-11-21T18:34:28;8.50;;;6.38;;
20443;SDS011;10381;53.730;10.010;2023-11-21T18:38:28;13.75;;;7.30;;
20443;SDS011;10381;53.730;10.010;2023-11-21T18:42:29;7.82;;;7.10;;
20443;SDS011;10381;53.730;10.010;2023-11-21T18:46:29;8.98;;;8.27;;
20443;SDS011;10381;53.730;10.010;2023-11-21T18:50:35;10.93;;;9.77;;
20443;SDS011;10381;53.730;10.010;2023-11-21T18:54:36;10.53;;;9.47;;
20443;SDS011;10381;53.730;10.010;2023-11-21T18:58:36;16.52;;;11.10;;
20443;SDS011;10381;53.730;10.010;2023-11-21T19:02:37;13.35;;;12.05;;
20443;SDS011;10381;53.730;10.010;2023-11-21T19:06:39;16.23;;;11.10;;
20443;SDS011;10381;53.730;10.010;2023-11-21T19:10:41;12.43;;;11.30;;
20443;SDS011;10381;53.730;10.010;2023-11-21T19:14:41;14.15;;;12.63;;
20443;SDS011;10381;53.730;10.010;2023-11-21T19:18:44;17.90;;;13.30;;
20443;SDS011;10381;53.730;10.010;2023-11-21T19:22:44;14.97;;;13.47;;
20443;SDS011;10381;53.730;10.010;2023-11-21T19:26:45;17.55;;;14.95;;
20443;SDS011;10381;53.730;10.010;2023-11-21T19:30:45;13.52;;;12.13;;
20443;SDS011;10381;53.730;10.010;2023-11-21T19:34:46;13.15;;;12.00;;
20443;SDS011;10381;53.730;10.010;2023-11-21T19:38:46;14.18;;;12.90;;
20443;SDS011;10381;53.730;10.010;2023-11-21T19:42:46;12.07;;;11.05;;
20443;SDS011;10381;53.730;10.010;2023-11-21T19:46:47;11.55;;;10.50;;
20443;SDS011;10381;53.730;10.010;2023-11-21T19:50:47;11.93;;;10.83;;
20443;SDS011;10381;53.730;10.010;2023-11-21T19:54:48;19.08;;;10.52;;
20443;SDS011;10381;53.730;10.010;2023-11-21T19:58:48;9.05;;;8.35;;
20443;SDS011;10381;53.730;10.010;2023-11-21T20:02:49;10.10;;;9.30;;
20443;SDS011;10381;53.730;10.010;2023-11-21T20:06:49;9.43;;;8.52;;
20443;SDS011;10381;53.730;10.010;2023-11-21T20:10:50;13.20;;;8.20;;
20443;SDS011;10381;53.730;10.010;2023-11-21T20:14:50;8.60;;;7.82;;
20443;SDS011;10381;53.730;10.010;2023-11-21T20:18:51;11.35;;;8.77;;
20443;SDS011;10381;53.730;10.010;2023-11-21T20:22:51;8.18;;;7.47;;
20443;SDS011;10381;53.730;10.010;2023-11-21T20:26:53;9.50;;;8.73;;
20443;SDS011;10381;53.730;10.010;2023-11-21T20:30:55;8.95;;;8.05;;
20443;SDS011;10381;53.730;10.010;2023-11-21T20:34:55;10.23;;;8.47;;
20443;SDS011;10381;53.730;10.010;2023-11-21T20:38:55;9.20;;;8.30;;
20443;SDS011;10381;53.730;10.010;2023-11-21T20:42:55;16.83;;;7.88;;
20443;SDS011;10381;53.730;10.010;2023-11-21T20:47:02;9.52;;;8.52;;
20443;SDS011;10381;53.730;10.010;2023-11-21T20:51:02;8.20;;;7.57;;
20443;SDS011;10381;53.730;10.010;2023-11-21T20:55:04;8.30;;;7.22;;
20443;SDS011;10381;53.730;10.010;2023-11-21T20:59:04;11.13;;;7.82;;
20443;SDS011;10381;53.730;10.010;2023-11-21T21:03:06;8.90;;;8.15;;
20443;SDS011;10381;53.730;10.010;2023-11-21T21:07:07;8.10;;;7.57;;
20443;SDS011;10381;53.730;10.010;2023-11-21T21:11:08;9.27;;;8.35;;
20443;SDS011;10381;53.730;10.010;2023-11-21T21:15:09;9.73;;;8.75;;
20443;SDS011;10381;53.730;10.010;2023-11-21T21:19:10;9.35;;;8.45;;
20443;SDS011;10381;53.730;10.010;2023-11-21T21:23:12;8.68;;;7.82;;
20443;SDS011;10381;53.730;10.010;2023-11-21T21:27:13;8.50;;;7.78;;
20443;SDS011;10381;53.730;10.010;2023-11-21T21:31:14;8.80;;;8.03;;
20443;SDS011;10381;53.730;10.010;2023-11-21T21:35:15;13.27;;;8.05;;
20443;SDS011;10381;53.730;10.010;2023-11-21T21:39:16;8.48;;;7.80;;
20443;SDS011;10381;53.730;10.010;2023-11-21T21:43:17;8.50;;;7.75;;
20443;SDS011;10381;53.730;10.010;2023-11-21T21:47:17;10.10;;;7.78;;
20443;SDS011;10381;53.730;10.010;2023-11-21T21:51:18;9.07;;;8.20;;
20443;SDS011;10381;53.730;10.010;2023-11-21T21:55:19;7.97;;;7.28;;
20443;SDS011;10381;53.730;10.010;2023-11-21T21:59:19;7.90;;;7.13;;
20443;SDS011;10381;53.730;10.010;2023-11-21T22:03:19;8.77;;;7.90;;
20443;SDS011;10381;53.730;10.010;2023-11-21T22:07:21;8.25;;;7.47;;
20443;SDS011;10381;53.730;10.010;2023-11-21T22:11:22;7.32;;;6.70;;
20443;SDS011;10381;53.730;10.010;2023-11-21T22:15:22;6.80;;;6.30;;
20443;SDS011;10381;53.730;10.010;2023-11-21T22:19:23;11.10;;;8.38;;
20443;SDS011;10381;53.730;10.010;2023-11-21T22:23:23;7.47;;;6.70;;
20443;SDS011;10381;53.730;10.010;2023-11-21T22:27:24;9.75;;;8.88;;
20443;SDS011;10381;53.730;10.010;2023-11-21T22:31:24;8.93;;;8.07;;
20443;SDS011;10381;53.730;10.010;2023-11-21T22:35:25;8.17;;;7.47;;
20443;SDS011;10381;53.730;10.010;2023-11-21T22:39:25;8.35;;;7.75;;
20443;SDS011;10381;53.730;10.010;2023-11-21T22:43:26;8.40;;;7.80;;
20443;SDS011;10381;53.730;10.010;2023-11-21T22:47:26;11.95;;;8.48;;
20443;SDS011;10381;53.730;10.010;2023-11-21T22:51:26;8.48;;;7.25;;
20443;SDS011;10381;53.730;10.010;2023-11-21T22:55:26;7.53;;;6.73;;
20443;SDS011;10381;53.730;10.010;2023-11-21T22:59:27;7.68;;;6.18;;
20443;SDS011;10381;53.730;10.010;2023-11-21T23:03:27;8.18;;;6.18;;
20443;SDS011;10381;53.730;10.010;2023-11-21T23:07:29;7.15;;;6.07;;
20443;SDS011;10381;53.730;10.010;2023-11-21T23:11:30;6.30;;;5.78;;
20443;SDS011;10381;53.730;10.010;2023-11-21T23:15:31;5.50;;;5.00;;
20443;SDS011;10381;53.730;10.010;2023-11-21T23:19:31;5.70;;;5.27;;
20443;SDS011;10381;53.730;10.010;2023-11-21T23:23:31;10.23;;;6.67;;
20443;SDS011;10381;53.730;10.010;2023-11-21T23:27:31;8.68;;;6.05;;
20443;SDS011;10381;53.730;10.010;2023-11-21T23:31:32;6.97;;;6.47;;
20443;SDS011;10381;53.730;10.010;2023-11-21T23:35:32;6.73;;;6.23;;
20443;SDS011;10381;53.730;10.010;2023-11-21T23:39:32;7.20;;;6.47;;
20443;SDS011;10381;53.730;10.010;2023-11-21T23:43:33;7.57;;;6.87;;
20443;SDS011;10381;53.730;10.010;2023-11-21T23:47:33;6.95;;;6.25;;
20443;SDS011;10381;53.730;10.010;2023-11-21T23:51:33;6.87;;;6.17;;
20443;SDS011;10381;53.730;10.010;2023-11-21T23:55:34;5.90;;;5.50;;